Barataria, LA (70036)

5:41 PM CDT on August 31, 2015 (GMT -0500)
Southeastern Louisiana Weather | | Change Station
CLOSE
Current Station
Personal Weather Station
Location: Barataria, LA
Elevation: 6 ft
Nearby Weather Stations

Elev 6 ft 29.69 °N, 90.10 °W | Updated 19 seconds ago

Partly Cloudy
Partly Cloudy
88.0 °F
Feels Like 93 °F
N
4.5
Wind Variable Wind from East
Gusts 8.3 mph

Today
High -- | Low -- °F
--% Chance of Precip.
Yesterday
High -- | Low -- °F
Precip. -- in
6:37 AM 7:24 PM
Waning Gibbous, 93% visible
Pressure 30.01 in
Visibility 10.0 miles
Clouds Few 5000 ft
Scattered Clouds 25000 ft
Heat Index 93 °F
Dew Point 69 °F
Humidity 54%
Rainfall 0.00 in
Snow Depth Not available.
UV 3 out of 12
Pollen 7.80 out of 12
Air Quality Not available.
Flu Activity Not available.
METAR KNBG 312155Z 11009KT 10SM FEW050 SCT250 32/17 A3001 RMK AO2 SLP160 CB DSNT SW T03220172 $
Pressure 30.01 in
Visibility 10.0 miles
Clouds Few 5000 ft
Scattered Clouds 25000 ft
Heat Index 93 °F
Dew Point 69 °F
Humidity 54%
Rainfall 0.00 in
Snow Depth Not available.
UV 3 out of 12
Pollen 7.80 out of 12
Air Quality Not available.
Flu Activity Not available.
METAR KNBG 312155Z 11009KT 10SM FEW050 SCT250 32/17 A3001 RMK AO2 SLP160 CB DSNT SW T03220172 $

10-Day Weather Forecast

×

Almanac

Astronomy

Aug. 31, 2015 Rise Set
Actual Time
Civil Twilight
Nautical Twilight
Astronomical Twilight
Moon
Length of Visible Light
Length of Day
Tomorrow will be .
, % of the Moon is Illuminated

Today's Extremes

State Highs State Lows

Community

WunderPhotos

Upload Photos

1,851,390 photos uploaded!

WunderBlogs® & News

Nearby

Air Quality

  Air Quality AQ Index Pollutant
Not available.

Snow Depth

Station Depth Elevation

Earthquake Activity

City Distance Mag. Time & Date
Minimum magnitude displayed is 2.5.

Coastal Water Temperatures

Place Temperature

Stations

Nearby Weather Stations

Station Location Temp. Windchill Dew Point Humidity Wind Precip. Elev Updated Type